createdAt,value
2018-12-19T00:01:23.541Z,23.77
2018-12-19T00:03:51.678Z,21.77
2018-12-19T00:06:19.787Z,24.30
2018-12-19T00:08:48.148Z,27.53
2018-12-19T00:11:16.269Z,23.40
2018-12-19T00:13:44.408Z,26.63
2018-12-19T00:16:12.562Z,32.87
2018-12-19T00:18:40.678Z,32.07
2018-12-19T00:21:08.862Z,28.43
2018-12-19T00:23:37.004Z,28.60
2018-12-19T00:26:05.123Z,26.57
2018-12-19T00:28:33.348Z,24.27
2018-12-19T00:31:01.401Z,24.00
2018-12-19T00:33:29.627Z,27.20
2018-12-19T00:35:57.777Z,23.17
2018-12-19T00:38:25.915Z,24.70
2018-12-19T00:40:54.155Z,24.20
2018-12-19T00:43:22.293Z,21.67
2018-12-19T00:45:50.337Z,23.57
2018-12-19T00:48:18.466Z,27.53
2018-12-19T00:50:46.603Z,28.07
2018-12-19T00:53:14.703Z,27.37
2018-12-19T00:55:42.817Z,24.90
2018-12-19T00:58:10.962Z,26.73
2018-12-19T01:00:39.013Z,26.90
2018-12-19T01:03:07.713Z,24.53
2018-12-19T01:05:35.839Z,23.57
2018-12-19T01:08:03.913Z,26.33
2018-12-19T01:10:31.990Z,24.23
2018-12-19T01:13:00.091Z,21.10
2018-12-19T01:15:28.241Z,24.50
2018-12-19T01:17:56.397Z,27.40
2018-12-19T01:20:24.887Z,26.20
2018-12-19T01:22:53.010Z,26.55
2018-12-19T01:25:21.352Z,27.65
2018-12-19T01:27:49.450Z,28.52
2018-12-19T01:30:17.585Z,26.95
2018-12-19T01:32:45.663Z,28.00
2018-12-19T01:35:13.931Z,26.77
2018-12-19T01:37:41.984Z,21.37
2018-12-19T01:40:10.144Z,24.97
2018-12-19T01:42:38.416Z,25.08
2018-12-19T01:45:07.237Z,22.37
2018-12-19T01:47:35.269Z,24.20
2018-12-19T01:50:04.497Z,24.97
2018-12-19T01:52:32.579Z,22.37
2018-12-19T01:55:00.716Z,21.97
2018-12-19T01:57:28.835Z,20.97
2018-12-19T01:59:56.978Z,20.40
2018-12-19T02:02:25.229Z,25.43
2018-12-19T02:04:53.351Z,23.53
2018-12-19T02:07:21.715Z,25.97
2018-12-19T02:09:49.783Z,21.17
2018-12-19T02:12:17.868Z,21.57
2018-12-19T02:14:46.023Z,19.87
2018-12-19T02:17:14.155Z,24.03
2018-12-19T02:19:43.011Z,23.77
2018-12-19T02:22:11.072Z,26.97
2018-12-19T02:24:39.166Z,21.57
2018-12-19T02:27:07.320Z,23.43
2018-12-19T02:29:35.453Z,21.00
2018-12-19T02:32:08.101Z,23.33
2018-12-19T02:34:36.557Z,21.73
2018-12-19T02:37:04.715Z,20.83
2018-12-19T02:39:42.186Z,25.70
2018-12-19T02:42:10.348Z,26.00
2018-12-19T02:44:38.342Z,21.80
2018-12-19T02:47:06.345Z,25.90
2018-12-19T02:49:39.665Z,18.03
2018-12-19T02:52:07.465Z,22.87
2018-12-19T02:54:35.495Z,21.67
2018-12-19T02:57:04.577Z,25.83
2018-12-19T02:59:32.744Z,20.20
2018-12-19T03:02:00.864Z,28.40
2018-12-19T03:04:28.946Z,22.23
2018-12-19T03:06:57.045Z,25.37
2018-12-19T03:09:25.310Z,22.77
2018-12-19T03:11:53.479Z,25.63
2018-12-19T03:14:22.568Z,21.77
2018-12-19T03:16:50.693Z,22.40
2018-12-19T03:19:19.061Z,24.70
2018-12-19T03:21:47.200Z,27.83
2018-12-19T03:24:15.412Z,21.93
2018-12-19T03:26:43.452Z,23.23
2018-12-19T03:29:16.589Z,21.00
2018-12-19T03:31:44.689Z,25.73
2018-12-19T03:34:12.750Z,19.13
2018-12-19T03:36:40.870Z,25.23
2018-12-19T03:39:09.207Z,21.93
2018-12-19T03:41:37.401Z,22.83
2018-12-19T03:44:05.532Z,21.87
2018-12-19T03:46:33.610Z,22.93
2018-12-19T03:49:01.689Z,22.10
2018-12-19T03:51:29.741Z,22.23
2018-12-19T03:53:57.813Z,22.10
2018-12-19T03:56:25.898Z,25.10
2018-12-19T03:58:54.058Z,25.43
2018-12-19T04:01:22.168Z,22.03
2018-12-19T04:03:50.308Z,25.67
2018-12-19T04:06:18.296Z,23.93
2018-12-19T04:08:46.636Z,22.30
2018-12-19T04:11:15.128Z,22.70
2018-12-19T04:13:43.203Z,23.17
2018-12-19T04:16:11.265Z,24.53
2018-12-19T04:18:39.394Z,22.43
2018-12-19T04:21:07.463Z,23.43
2018-12-19T04:23:35.651Z,20.17
2018-12-19T04:26:04.699Z,21.37
2018-12-19T04:28:32.830Z,22.93
2018-12-19T04:31:00.879Z,22.63
2018-12-19T04:33:28.971Z,25.17
2018-12-19T04:35:57.132Z,24.97
2018-12-19T04:38:25.928Z,24.17
2018-12-19T04:40:53.997Z,21.77
2018-12-19T04:43:22.081Z,20.50
2018-12-19T04:45:50.180Z,22.83
2018-12-19T04:48:18.343Z,27.53
2018-12-19T04:50:46.463Z,23.67
2018-12-19T04:53:14.725Z,28.17
2018-12-19T04:55:42.891Z,28.23
2018-12-19T04:58:11.004Z,30.10
2018-12-19T05:00:39.093Z,18.53
2018-12-19T05:03:07.173Z,24.57
2018-12-19T05:05:35.200Z,60.50
2018-12-19T05:08:03.623Z,26.73
2018-12-19T05:10:31.663Z,60.43
2018-12-19T05:13:01.271Z,30.13
2018-12-19T05:15:29.576Z,32.87
2018-12-19T05:17:57.668Z,23.53
2018-12-19T05:20:25.854Z,24.50
2018-12-19T05:22:54.525Z,21.53
2018-12-19T05:25:22.647Z,60.57
2018-12-19T05:27:50.809Z,25.00
2018-12-19T05:30:24.065Z,24.63
2018-12-19T05:32:52.158Z,35.93
2018-12-19T05:35:20.336Z,27.93
2018-12-19T05:37:48.351Z,29.23
2018-12-19T05:40:19.003Z,33.10
2018-12-19T05:42:46.783Z,40.63
2018-12-19T05:45:14.900Z,46.47
2018-12-19T05:47:42.965Z,29.83
2018-12-19T05:50:17.163Z,27.87
2018-12-19T05:52:45.499Z,28.90
2018-12-19T05:55:13.627Z,27.33
2018-12-19T05:57:41.916Z,31.30
2018-12-19T06:00:10.180Z,36.63
2018-12-19T06:02:38.231Z,29.37
2018-12-19T06:05:06.473Z,23.70
2018-12-19T06:07:34.570Z,22.93
2018-12-19T06:10:02.847Z,37.00
2018-12-19T06:12:31.077Z,57.20
2018-12-19T06:14:59.319Z,38.80
2018-12-19T06:17:27.413Z,29.27
2018-12-19T06:19:55.523Z,30.10
2018-12-19T06:22:23.643Z,31.73
2018-12-19T06:24:51.731Z,25.73
2018-12-19T06:27:23.456Z,25.27
2018-12-19T06:29:57.329Z,27.70
2018-12-19T06:32:25.484Z,23.73
2018-12-19T06:34:53.552Z,22.07
2018-12-19T06:37:21.676Z,26.63
2018-12-19T06:39:49.777Z,21.33
2018-12-19T06:42:17.940Z,25.27
2018-12-19T06:44:47.500Z,27.17
2018-12-19T06:47:15.631Z,21.67
2018-12-19T06:49:43.777Z,19.60
2018-12-19T06:52:11.949Z,24.00
2018-12-19T06:54:40.010Z,22.97
2018-12-19T06:57:09.574Z,27.43
2018-12-19T06:59:37.977Z,25.77
2018-12-19T07:02:06.005Z,24.50
2018-12-19T07:04:34.114Z,27.07
2018-12-19T07:07:02.261Z,20.60
2018-12-19T07:09:39.851Z,24.37
2018-12-19T07:12:08.012Z,21.47
2018-12-19T07:14:40.204Z,25.93
2018-12-19T07:17:08.612Z,22.17
2018-12-19T07:19:36.921Z,26.20
2018-12-19T07:22:05.147Z,24.57
2018-12-19T07:24:33.208Z,22.23
2018-12-19T07:27:01.339Z,23.00
2018-12-19T07:29:29.532Z,28.50
2018-12-19T07:31:57.628Z,26.70
2018-12-19T07:34:25.692Z,25.77
2018-12-19T07:36:53.859Z,25.40
2018-12-19T07:39:22.062Z,25.10
2018-12-19T07:41:50.186Z,22.40
2018-12-19T07:44:18.342Z,22.87
2018-12-19T07:46:46.450Z,26.07
2018-12-19T07:49:14.857Z,28.17
2018-12-19T07:51:43.048Z,24.87
2018-12-19T07:54:11.091Z,23.43
2018-12-19T07:56:39.256Z,29.33
2018-12-19T07:59:12.593Z,27.43
2018-12-19T08:01:40.642Z,27.03
2018-12-19T08:04:09.049Z,29.93
2018-12-19T08:06:37.255Z,27.00
2018-12-19T08:09:07.621Z,28.77
2018-12-19T08:11:36.718Z,24.70
2018-12-19T08:14:05.297Z,33.23
2018-12-19T08:16:33.500Z,26.33
2018-12-19T08:19:01.617Z,32.60
2018-12-19T08:21:29.760Z,31.40
2018-12-19T08:23:57.826Z,35.87
2018-12-19T08:26:26.321Z,28.23
2018-12-19T08:28:54.643Z,34.97
2018-12-19T08:31:23.030Z,46.83
2018-12-19T08:33:51.163Z,29.07
2018-12-19T08:36:19.280Z,27.17
2018-12-19T08:38:47.473Z,28.17
2018-12-19T08:41:15.577Z,28.93
2018-12-19T08:43:43.666Z,47.53
2018-12-19T08:46:14.659Z,36.43
2018-12-19T08:48:41.969Z,26.03
2018-12-19T08:51:10.057Z,35.73
2018-12-19T08:53:38.291Z,29.07
2018-12-19T08:56:06.491Z,30.27
2018-12-19T08:58:34.690Z,30.10
2018-12-19T09:01:16.648Z,27.00
2018-12-19T09:03:44.888Z,26.83
2018-12-19T09:06:13.076Z,27.70
2018-12-19T09:08:41.121Z,29.87
2018-12-19T09:11:09.233Z,31.50
2018-12-19T09:13:37.351Z,26.30
2018-12-19T09:16:05.422Z,27.97
2018-12-19T09:18:33.546Z,30.80
2018-12-19T09:21:01.694Z,29.17
2018-12-19T09:23:29.847Z,29.00
2018-12-19T09:25:57.910Z,27.37
2018-12-19T09:28:26.074Z,30.57
2018-12-19T09:30:54.753Z,29.83
2018-12-19T09:33:27.350Z,32.37
2018-12-19T09:35:52.958Z,30.33
2018-12-19T09:38:21.079Z,28.17
2018-12-19T09:40:49.207Z,29.03
2018-12-19T09:43:17.279Z,29.60
2018-12-19T09:45:45.385Z,31.47
2018-12-19T09:48:13.587Z,29.57
2018-12-19T09:50:42.377Z,35.50
2018-12-19T09:53:10.660Z,33.23
2018-12-19T09:55:38.741Z,32.77
2018-12-19T09:58:06.899Z,30.03
2018-12-19T10:00:35.277Z,29.17
2018-12-19T10:03:03.504Z,31.77
2018-12-19T10:05:31.855Z,35.03
2018-12-19T10:07:59.940Z,26.60
2018-12-19T10:10:30.485Z,34.70
2018-12-19T10:12:58.541Z,28.53
2018-12-19T10:15:26.762Z,30.20
2018-12-19T10:17:54.903Z,30.13
2018-12-19T10:20:52.785Z,31.67
2018-12-19T10:23:21.234Z,28.63
2018-12-19T10:25:53.926Z,30.33
2018-12-19T10:28:27.520Z,32.63
2018-12-19T10:31:00.757Z,31.13
2018-12-19T10:33:28.880Z,30.40
2018-12-19T10:35:57.242Z,32.40
2018-12-19T10:38:25.347Z,31.33
2018-12-19T10:40:53.453Z,33.20
2018-12-19T10:43:21.592Z,32.67
2018-12-19T10:45:50.275Z,32.43
2018-12-19T10:48:18.416Z,32.87
2018-12-19T10:50:46.592Z,30.33
2018-12-19T10:53:14.622Z,32.50
2018-12-19T10:55:42.810Z,38.73
2018-12-19T10:58:10.982Z,34.47
2018-12-19T11:00:44.746Z,30.37
2018-12-19T11:03:12.865Z,35.30
2018-12-19T11:05:41.109Z,31.90
2018-12-19T11:08:09.258Z,34.57
2018-12-19T11:10:37.465Z,30.67
2018-12-19T11:13:05.529Z,36.80
2018-12-19T11:15:34.747Z,33.30
2018-12-19T11:18:02.878Z,33.87
2018-12-19T11:20:40.469Z,36.37
2018-12-19T11:23:08.580Z,30.47
2018-12-19T11:25:37.270Z,34.93
2018-12-19T11:28:05.353Z,31.10
2018-12-19T11:30:33.427Z,32.73
2018-12-19T11:33:01.501Z,34.10
2018-12-19T11:35:29.611Z,31.57
2018-12-19T11:37:57.702Z,35.57
2018-12-19T11:40:25.750Z,36.40
2018-12-19T11:42:53.895Z,41.90
2018-12-19T11:45:21.997Z,35.43
2018-12-19T11:47:50.147Z,30.30
2018-12-19T11:50:18.217Z,32.23
2018-12-19T11:52:46.332Z,30.73
2018-12-19T11:55:14.393Z,34.67
2018-12-19T11:57:43.067Z,33.47
2018-12-19T12:00:11.407Z,32.33
2018-12-19T12:02:39.566Z,35.33
2018-12-19T12:05:07.752Z,35.30
2018-12-19T12:07:36.104Z,32.70
2018-12-19T12:10:06.018Z,33.60
2018-12-19T12:12:34.134Z,32.27
2018-12-19T12:15:02.253Z,33.00
2018-12-19T12:17:30.409Z,37.37
2018-12-19T12:20:12.742Z,37.57
2018-12-19T12:22:41.274Z,35.03
2018-12-19T12:25:09.677Z,33.77
2018-12-19T12:27:37.858Z,39.53
2018-12-19T12:30:06.524Z,40.10
2018-12-19T12:32:36.800Z,43.47
2018-12-19T12:35:06.626Z,38.37
2018-12-19T12:37:34.820Z,32.73
2018-12-19T12:40:03.310Z,41.60
2018-12-19T12:42:31.411Z,36.00
2018-12-19T12:45:00.055Z,37.70
2018-12-19T12:47:28.285Z,37.93
2018-12-19T12:49:56.477Z,41.60
2018-12-19T12:52:24.583Z,39.87
2018-12-19T12:54:52.709Z,41.77
2018-12-19T12:57:26.682Z,46.00
2018-12-19T12:59:54.893Z,47.07
2018-12-19T13:02:22.983Z,48.03
2018-12-19T13:04:51.146Z,41.37
2018-12-19T13:07:20.075Z,46.23
2018-12-19T13:09:48.105Z,50.80
2018-12-19T13:12:16.112Z,42.13
2018-12-19T13:14:44.255Z,36.30
2018-12-19T13:17:12.362Z,40.37
2018-12-19T13:19:40.588Z,51.27
2018-12-19T13:22:08.758Z,46.50
2018-12-19T13:24:36.864Z,40.90
2018-12-19T13:27:05.362Z,51.80
2018-12-19T13:29:34.128Z,39.63
2018-12-19T13:32:02.470Z,52.40
2018-12-19T13:34:30.610Z,45.07
2018-12-19T13:36:58.811Z,47.37
2018-12-19T13:39:26.991Z,48.13
2018-12-19T13:41:55.047Z,42.27
2018-12-19T13:44:23.199Z,42.10
2018-12-19T13:46:51.364Z,44.27
2018-12-19T13:49:19.589Z,42.83
2018-12-19T13:51:48.140Z,42.10
2018-12-19T13:54:16.318Z,50.90
2018-12-19T13:56:44.719Z,46.47
2018-12-19T13:59:16.406Z,44.27
2018-12-19T14:01:44.602Z,49.70
2018-12-19T14:04:12.792Z,48.03
2018-12-19T14:06:40.988Z,50.90
2018-12-19T14:09:18.998Z,42.43
2018-12-19T14:11:47.252Z,49.57
2018-12-19T14:14:15.405Z,44.53
2018-12-19T14:16:43.584Z,50.13
2018-12-19T14:19:11.722Z,49.00
2018-12-19T14:21:39.924Z,58.20
2018-12-19T14:24:08.120Z,40.07
2018-12-19T14:26:36.229Z,49.00
2018-12-19T14:29:04.433Z,48.47
2018-12-19T14:31:32.504Z,52.20
2018-12-19T14:34:00.687Z,50.90
2018-12-19T14:36:28.823Z,54.23
2018-12-19T14:38:56.889Z,53.87
2018-12-19T14:41:24.990Z,51.03
2018-12-19T14:43:53.091Z,49.27
2018-12-19T14:46:21.924Z,44.80
2018-12-19T14:48:50.012Z,46.33
2018-12-19T14:51:18.150Z,53.63
2018-12-19T14:53:46.254Z,50.43
2018-12-19T14:56:15.296Z,46.60
2018-12-19T14:58:43.461Z,49.93
2018-12-19T15:01:11.686Z,41.00
2018-12-19T15:03:39.826Z,47.57
2018-12-19T15:06:07.850Z,50.77
2018-12-19T15:08:35.979Z,43.90
2018-12-19T15:11:04.466Z,51.43
2018-12-19T15:13:32.534Z,43.70
2018-12-19T15:16:02.080Z,49.90
2018-12-19T15:18:30.587Z,52.87
2018-12-19T15:21:12.603Z,52.17
2018-12-19T15:23:40.751Z,60.67
2018-12-19T15:26:08.905Z,60.43
2018-12-19T15:28:37.036Z,65.13
2018-12-19T15:31:05.232Z,47.90
2018-12-19T15:33:33.485Z,57.03
2018-12-19T15:36:01.743Z,49.40
2018-12-19T15:38:29.893Z,42.10
2018-12-19T15:41:03.117Z,52.53
2018-12-19T15:43:42.782Z,52.10
2018-12-19T15:46:10.885Z,61.00
2018-12-19T15:48:38.989Z,65.43
2018-12-19T15:51:07.276Z,62.30
2018-12-19T15:53:35.363Z,54.77
2018-12-19T15:56:03.449Z,51.37
2018-12-19T15:58:31.565Z,58.47
2018-12-19T16:00:59.749Z,72.70
2018-12-19T16:03:28.266Z,77.33
2018-12-19T16:05:56.587Z,54.23
2018-12-19T16:08:24.781Z,55.77
2018-12-19T16:10:52.959Z,54.20
2018-12-19T16:13:24.241Z,50.23
2018-12-19T16:15:52.484Z,54.57
2018-12-19T16:18:21.111Z,52.50
2018-12-19T16:21:00.436Z,40.40
2018-12-19T16:23:28.638Z,46.33
2018-12-19T16:25:56.752Z,41.00
2018-12-19T16:28:24.863Z,44.43
2018-12-19T16:30:52.882Z,43.57
2018-12-19T16:33:21.042Z,44.57
2018-12-19T16:35:49.195Z,43.30
2018-12-19T16:38:22.018Z,38.20
2018-12-19T16:41:13.333Z,49.33
2018-12-19T16:43:43.922Z,37.13
2018-12-19T16:46:20.585Z,42.83
2018-12-19T16:48:50.702Z,39.00
2018-12-19T16:51:18.863Z,36.83
2018-12-19T16:53:47.026Z,37.87
2018-12-19T16:56:15.087Z,35.70
2018-12-19T16:58:43.254Z,39.83
2018-12-19T17:01:11.442Z,39.13
2018-12-19T17:03:39.691Z,36.83
2018-12-19T17:06:14.583Z,41.40
2018-12-19T17:08:44.831Z,40.33
2018-12-19T17:11:15.875Z,38.37
2018-12-19T17:13:44.354Z,44.03
2018-12-19T17:16:12.481Z,40.60
2018-12-19T17:18:40.552Z,42.23
2018-12-19T17:21:18.966Z,40.07
2018-12-19T17:23:47.061Z,41.90
2018-12-19T17:26:15.282Z,44.53
2018-12-19T17:28:43.472Z,41.27
2018-12-19T17:31:11.576Z,36.97
2018-12-19T17:33:50.488Z,57.03
2018-12-19T17:36:18.668Z,43.90
2018-12-19T17:38:46.814Z,51.57
2018-12-19T17:41:15.055Z,50.53
2018-12-19T17:43:52.834Z,43.03
2018-12-19T17:46:20.997Z,42.93
2018-12-19T17:48:49.136Z,39.50
2018-12-19T17:51:17.173Z,35.53
2018-12-19T17:53:45.255Z,36.93
2018-12-19T17:56:13.433Z,46.73
2018-12-19T17:58:41.534Z,31.83
2018-12-19T18:01:09.637Z,40.27
2018-12-19T18:03:37.842Z,38.57
2018-12-19T18:06:06.018Z,41.27
2018-12-19T18:08:34.225Z,38.93
2018-12-19T18:14:02.310Z,39.97
2018-12-19T18:16:30.625Z,38.13
2018-12-19T18:19:08.230Z,45.90
2018-12-19T18:21:36.700Z,37.07
2018-12-19T18:24:04.826Z,39.73
2018-12-19T18:26:33.121Z,44.00
2018-12-19T18:29:01.517Z,41.37
2018-12-19T18:31:29.669Z,49.87
2018-12-19T18:33:58.042Z,45.90
2018-12-19T18:36:26.300Z,42.93
2018-12-19T18:38:54.619Z,43.57
2018-12-19T18:41:22.740Z,48.17
2018-12-19T18:43:50.892Z,45.10
2018-12-19T18:46:19.178Z,42.10
2018-12-19T18:48:47.288Z,46.03
2018-12-19T18:51:15.422Z,46.43
2018-12-19T18:53:43.606Z,46.73
2018-12-19T18:56:11.807Z,35.80
2018-12-19T18:58:39.997Z,42.30
2018-12-19T19:01:08.436Z,42.07
2018-12-19T19:03:36.838Z,42.40
2018-12-19T19:06:05.074Z,44.73
2018-12-19T19:08:33.369Z,43.70
2018-12-19T19:11:01.559Z,54.43
2018-12-19T19:13:29.693Z,48.47
2018-12-19T19:15:58.599Z,47.20
2018-12-19T19:18:27.527Z,51.77
2018-12-19T19:20:56.356Z,47.10
2018-12-19T19:23:30.874Z,48.47
2018-12-19T19:26:00.769Z,49.50
2018-12-19T19:28:31.867Z,53.17
2018-12-19T19:31:05.774Z,41.63
2018-12-19T19:33:34.725Z,45.53
2018-12-19T19:36:03.709Z,45.43
2018-12-19T19:38:32.580Z,50.77
2018-12-19T19:41:01.767Z,50.17
2018-12-19T19:43:30.733Z,46.27
2018-12-19T19:45:59.313Z,46.97
2018-12-19T19:48:28.207Z,56.07
2018-12-19T19:50:56.983Z,92.63
2018-12-19T19:53:26.078Z,46.37
2018-12-19T19:55:55.207Z,47.83
2018-12-19T19:58:24.092Z,52.47
2018-12-19T20:00:53.264Z,43.83
2018-12-19T20:03:22.275Z,51.90
2018-12-19T20:05:51.478Z,46.87
2018-12-19T20:08:20.204Z,45.97
2018-12-19T20:10:49.281Z,48.80
2018-12-19T20:13:18.123Z,47.93
2018-12-19T20:15:46.833Z,47.17
2018-12-19T20:18:16.930Z,46.17
2018-12-19T20:20:45.957Z,43.33
2018-12-19T20:23:14.784Z,47.33
2018-12-19T20:25:43.494Z,47.33
2018-12-19T20:28:12.390Z,50.70
2018-12-19T20:30:54.880Z,42.63
2018-12-19T20:33:23.708Z,42.47
2018-12-19T20:35:52.458Z,41.40
2018-12-19T20:38:21.339Z,47.90
2018-12-19T20:40:49.408Z,45.83
2018-12-19T20:43:17.662Z,49.47
2018-12-19T20:45:45.871Z,43.90
2018-12-19T20:48:14.205Z,42.37
2018-12-19T20:50:42.544Z,47.63
2018-12-19T20:53:10.817Z,47.07
2018-12-19T20:55:39.087Z,51.90
2018-12-19T20:58:07.303Z,51.10
2018-12-19T21:00:35.539Z,40.00
2018-12-19T21:03:03.915Z,52.53
2018-12-19T21:05:33.091Z,53.83
2018-12-19T21:08:01.262Z,50.13
2018-12-19T21:10:29.395Z,52.37
2018-12-19T21:12:57.793Z,49.57
2018-12-19T21:15:26.075Z,76.93
2018-12-19T21:18:00.034Z,68.30
2018-12-19T21:20:28.111Z,50.40
2018-12-19T21:22:56.462Z,55.43
2018-12-19T21:28:03.683Z,55.67
2018-12-19T21:30:32.029Z,51.93
2018-12-19T21:33:13.819Z,55.60
2018-12-19T21:35:38.458Z,50.37
2018-12-19T21:38:07.609Z,53.37
2018-12-19T21:40:49.902Z,59.30
2018-12-19T21:43:18.085Z,55.80
2018-12-19T21:45:51.811Z,51.60
2018-12-19T21:48:16.396Z,46.93
2018-12-19T21:50:44.567Z,50.57
2018-12-19T21:53:13.697Z,51.70
2018-12-19T21:55:41.973Z,56.37
2018-12-19T21:58:10.211Z,58.57
2018-12-19T22:00:39.894Z,57.87
2018-12-19T22:03:08.778Z,50.67
2018-12-19T22:05:39.038Z,61.47
2018-12-19T22:08:07.220Z,59.83
2018-12-19T22:10:35.532Z,56.87
2018-12-19T22:13:03.931Z,53.20
2018-12-19T22:15:32.210Z,57.27
2018-12-19T22:18:05.963Z,63.87
2018-12-19T22:20:34.335Z,63.57
2018-12-19T22:23:02.428Z,66.30
2018-12-19T22:25:30.735Z,56.27
2018-12-19T22:27:58.945Z,63.87
2018-12-19T22:30:27.079Z,56.97
2018-12-19T22:32:55.398Z,58.10
2018-12-19T22:35:23.539Z,53.87
2018-12-19T22:37:51.748Z,46.83
2018-12-19T22:40:19.978Z,54.73
2018-12-19T22:42:48.142Z,47.57
2018-12-19T22:45:16.466Z,44.70
2018-12-19T22:47:44.655Z,44.57
2018-12-19T22:50:12.757Z,49.83
2018-12-19T22:52:41.007Z,56.37
2018-12-19T22:55:10.096Z,42.50
2018-12-19T22:57:38.263Z,47.87
2018-12-19T23:00:15.950Z,43.23
2018-12-19T23:02:50.991Z,36.60
2018-12-19T23:05:25.357Z,43.00
2018-12-19T23:07:53.532Z,36.73
2018-12-19T23:13:21.918Z,37.70
2018-12-19T23:15:50.088Z,44.00
2018-12-19T23:18:23.633Z,40.47
2018-12-19T23:20:52.173Z,36.63
2018-12-19T23:23:20.478Z,40.57
2018-12-19T23:25:48.939Z,43.50
2018-12-19T23:28:17.209Z,41.37
2018-12-19T23:30:59.546Z,44.30
2018-12-19T23:33:27.827Z,42.27
2018-12-19T23:35:56.056Z,38.70
2018-12-19T23:38:24.144Z,36.70
2018-12-19T23:40:52.392Z,40.17
2018-12-19T23:43:20.949Z,43.63
2018-12-19T23:45:49.221Z,38.63
2018-12-19T23:48:17.596Z,41.20
2018-12-19T23:50:45.707Z,39.37
2018-12-19T23:53:14.175Z,42.63
2018-12-19T23:55:42.353Z,43.83
2018-12-19T23:58:10.540Z,46.03
